Pagina principale
METAR-TAF:

METAR-TAF

Aeroporti :

Maragheh, Iran

latitudine: 37-20-55N, longitudine: 046-07-35E, altezza: 1340 m

Osservazione

Il bollettino è stato emesso 47 minuti fa, alle 04:00 UTC
Vento 2 kt da ovest
Temperature -6°C
Umidità 93%
Pressione 1017 hPa
Visibilità: 1100 m
Cielo coperto ad un'altezza di 9000 ft
foschia

METAR: OITM 290400Z 28002KT 1100 BR OVC090 M06/M07 Q1017

Ora: 08:17 (04:47 UTC)


TAF: mancante

Osservazioni e previsioni meteorologiche di più di 4000 aeroporti (messaggi METAR e TAF).

Le stazioni disponibili sono rappresentate dai dischi gialli e rossi sulla carta.

Puntare il mouse per vedere il nome della stazione.

Clicca sopra per visualizzare le osservazioni e previsioni meteorologiche.

Per cambiare la mappa : fare clic sui pulsanti verdi con una croce nera per ingrandire, il pulsante verde con un trattino per diminuire, o sulla freccia verde per le mappe adiacenti.


METAR-TAF: